Etusivu
METAR-TAF:

METAR-TAF

Lentoasemat :

Arvidsjaur, Ruotsi

Leveyspiiri: 65-35-25N, Pituuspiiri: 019-16-55E, korkeus merenpinnasta: 379 m

Tämänhetkinen sää

Tämä raportti tehtiin 33 minuuttia sitten, kello 01.20 UTC
Tuuli 5 kn luoteesta
Lämpötila 2°C
Kosteus 80%
Ilmanpaine 1025 hPa
Näkyvyys 10 km tai enemmän

METAR: ESNX 090120Z AUTO 31005KT 9999 NCD 02/M01 Q1025

Aika: 03:53 (01:53 UTC)

Sääennuste

Tämä raportti tehtiin 8 tuntia ja 23 minuuttia sitten, kello 17.30 UTC
Ennuste voimassa 08. päivästä klo 18 UTC - 08. päivään klo 20 UTC
Tuuli 7 kn pohjoisen/luoteesta
Näkyvyys 10 km tai enemmän
Muutamia pilviä 2500 ft:n korkeudessa

TAF: ESNX 081730Z 0818/0820 34007KT 9999 FEW025

Säähavainnot ja -ennusteet yli 4000 lentoasemalta (METAR- ja TAF-raportit).

Käytössä olevat sääasemat on merkitty karttaan keltaisilla ja punaisilla pisteillä.

Aseta hiiri pisteen päälle nähdäksesi sääaseman nimen.

Klikkaa sitten nähdäksesi säähavainnot ja -ennusteet.

Kartan vaihtaminen: klikkaa mustalla rastilla varustettuja vihreitä pisteitä, niin voit zoomata sisään; viivalla varustettua vihreää pistettä, niin voit zoomata ulos tai vihreitä nuolia, niin pääset viereisille kartoille.


METAR-TAF: